createdAt,value
2023-02-11T00:00:41.743Z,102552.31
2023-02-11T00:03:08.314Z,102545.00
2023-02-11T00:05:34.908Z,102542.41
2023-02-11T00:08:01.237Z,102547.50
2023-02-11T00:10:27.549Z,102546.72
2023-02-11T00:12:53.839Z,102546.31
2023-02-11T00:15:21.078Z,102556.09
2023-02-11T00:17:47.508Z,102540.84
2023-02-11T00:20:13.887Z,102548.00
2023-02-11T00:22:40.153Z,102531.56
2023-02-11T00:25:06.613Z,102540.19
2023-02-11T00:27:33.274Z,102537.56
2023-02-11T00:30:00.457Z,102533.28
2023-02-11T00:32:26.745Z,102536.25
2023-02-11T00:34:55.062Z,102533.16
2023-02-11T00:37:21.789Z,102535.22
2023-02-11T00:39:48.296Z,102531.16
2023-02-11T00:42:15.150Z,102517.59
2023-02-11T00:44:41.552Z,102520.97
2023-02-11T00:47:07.915Z,102518.50
2023-02-11T00:49:34.238Z,102516.41
2023-02-11T00:52:00.517Z,102515.59
2023-02-11T00:54:29.037Z,102519.91
2023-02-11T00:56:56.277Z,102506.88
2023-02-11T00:59:22.631Z,102513.91
2023-02-11T01:01:48.996Z,102518.09
2023-02-11T01:04:15.329Z,102523.84
2023-02-11T01:06:41.636Z,102521.63
2023-02-11T01:09:07.947Z,102517.44
2023-02-11T01:11:34.267Z,102514.94
2023-02-11T01:14:00.629Z,102511.84
2023-02-11T01:16:27.016Z,102520.72
2023-02-11T01:18:53.432Z,102514.69
2023-02-11T01:21:19.915Z,102508.94
2023-02-11T01:23:46.293Z,102507.25
2023-02-11T01:26:13.339Z,102508.41
2023-02-11T01:28:40.030Z,102499.78
2023-02-11T01:31:06.532Z,102494.16
2023-02-11T01:33:32.913Z,102504.72
2023-02-11T01:36:04.333Z,102502.72
2023-02-11T01:38:31.167Z,102503.63
2023-02-11T01:40:58.924Z,102506.63
2023-02-11T01:43:27.656Z,102499.69
2023-02-11T01:46:02.636Z,102499.06
2023-02-11T01:48:31.789Z,102497.38
2023-02-11T01:51:09.164Z,102486.91
2023-02-11T01:53:57.160Z,102484.31
2023-02-11T01:56:44.344Z,102480.78
2023-02-11T01:59:18.352Z,102468.88
2023-02-11T02:01:50.941Z,102467.16
2023-02-11T02:04:19.049Z,102468.06
2023-02-11T02:06:59.671Z,102468.16
2023-02-11T02:09:30.074Z,102472.56
2023-02-11T02:11:56.432Z,102469.84
2023-02-11T02:14:22.792Z,102472.41
2023-02-11T02:16:49.204Z,102474.09
2023-02-11T02:19:30.509Z,102463.41
2023-02-11T02:22:29.352Z,102455.56
2023-02-11T02:25:30.890Z,102442.09
2023-02-11T02:28:44.690Z,102437.91
2023-02-11T02:31:40.057Z,102438.69
2023-02-11T02:34:30.724Z,102446.25
2023-02-11T02:37:12.841Z,102446.94
2023-02-11T02:39:39.652Z,102449.00
2023-02-11T02:42:06.296Z,102454.47
2023-02-11T02:44:33.585Z,102464.44
2023-02-11T02:46:59.995Z,102456.59
2023-02-11T02:49:26.308Z,102446.13
2023-02-11T02:52:05.968Z,102450.41
2023-02-11T02:54:59.753Z,102455.19
2023-02-11T02:58:20.526Z,102448.38
2023-02-11T03:01:12.877Z,102452.88
2023-02-11T03:04:16.846Z,102433.31
2023-02-11T03:07:01.815Z,102432.56
2023-02-11T03:09:36.954Z,102435.59
2023-02-11T03:12:05.930Z,102439.53
2023-02-11T03:14:33.623Z,102446.22
2023-02-11T03:17:03.366Z,102441.91
2023-02-11T03:19:37.492Z,102442.69
2023-02-11T03:22:08.059Z,102450.66
2023-02-11T03:24:38.154Z,102440.19
2023-02-11T03:27:19.545Z,102444.75
2023-02-11T03:30:01.050Z,102436.00
2023-02-11T03:32:36.376Z,102419.25
2023-02-11T03:35:20.046Z,102411.53
2023-02-11T03:37:55.209Z,102414.50
2023-02-11T03:40:29.507Z,102418.97
2023-02-11T03:43:05.341Z,102418.06
2023-02-11T03:45:32.081Z,102408.13
2023-02-11T03:48:08.845Z,102400.69
2023-02-11T03:50:37.144Z,102383.69
2023-02-11T03:53:04.245Z,102386.97
2023-02-11T03:55:35.048Z,102377.94
2023-02-11T03:58:01.490Z,102363.91
2023-02-11T04:00:42.140Z,102357.09
2023-02-11T04:03:09.571Z,102353.56
2023-02-11T04:05:36.499Z,102353.88
2023-02-11T04:08:03.305Z,102347.03
2023-02-11T04:10:29.980Z,102347.59
2023-02-11T04:12:56.566Z,102346.47
2023-02-11T04:15:23.214Z,102361.53
2023-02-11T04:17:49.775Z,102362.44
2023-02-11T04:20:16.431Z,102362.25
2023-02-11T04:22:42.784Z,102376.84
2023-02-11T04:25:09.822Z,102377.75
2023-02-11T04:27:36.608Z,102377.75
2023-02-11T04:30:07.051Z,102384.28
2023-02-11T04:32:33.417Z,102367.25
2023-02-11T04:34:59.720Z,102383.69
2023-02-11T04:37:26.034Z,102382.38
2023-02-11T04:39:52.322Z,102391.06
2023-02-11T04:42:18.709Z,102386.53
2023-02-11T04:44:45.031Z,102405.94
2023-02-11T04:47:13.382Z,102395.38
2023-02-11T04:49:39.709Z,102384.94
2023-02-11T04:52:06.204Z,102385.19
2023-02-11T04:54:32.532Z,102384.38
2023-02-11T04:56:58.839Z,102379.84
2023-02-11T04:59:25.248Z,102372.91
2023-02-11T05:01:51.576Z,102390.31
2023-02-11T05:04:18.399Z,102389.03
2023-02-11T05:06:44.892Z,102381.84
2023-02-11T05:09:12.510Z,102376.13
2023-02-11T05:11:42.263Z,102376.13
2023-02-11T05:14:08.623Z,102354.09
2023-02-11T05:16:35.169Z,102355.63
2023-02-11T05:19:01.643Z,102338.59
2023-02-11T05:21:28.067Z,102328.38
2023-02-11T05:23:54.423Z,102328.75
2023-02-11T05:26:20.811Z,102328.34
2023-02-11T05:28:47.324Z,102333.41
2023-02-11T05:31:14.593Z,102342.25
2023-02-11T05:33:41.448Z,102332.44
2023-02-11T05:36:10.103Z,102346.16
2023-02-11T05:38:37.567Z,102352.41
2023-02-11T05:41:05.202Z,102361.94
2023-02-11T05:43:31.808Z,102360.13
2023-02-11T05:45:58.304Z,102373.00
2023-02-11T05:48:24.646Z,102367.19
2023-02-11T05:50:50.932Z,102374.09
2023-02-11T05:53:17.401Z,102359.72
2023-02-11T05:55:43.888Z,102372.41
2023-02-11T05:58:10.433Z,102373.75
2023-02-11T06:00:37.110Z,102364.91
2023-02-11T06:03:04.520Z,102375.00
2023-02-11T06:05:31.164Z,102386.09
2023-02-11T06:07:57.660Z,102368.34
2023-02-11T06:10:24.088Z,102370.88
2023-02-11T06:12:50.401Z,102374.13
2023-02-11T06:15:16.802Z,102378.44
2023-02-11T06:17:43.123Z,102391.63
2023-02-11T06:20:10.488Z,102382.13
2023-02-11T06:22:36.989Z,102379.25
2023-02-11T06:25:03.811Z,102382.66
2023-02-11T06:27:30.306Z,102379.91
2023-02-11T06:29:56.929Z,102392.28
2023-02-11T06:32:43.232Z,102389.53
2023-02-11T06:35:11.946Z,102386.16
2023-02-11T06:37:39.235Z,102391.50
2023-02-11T06:40:06.222Z,102392.94
2023-02-11T06:42:32.537Z,102392.94
2023-02-11T06:44:58.853Z,102380.94
2023-02-11T06:47:25.200Z,102375.84
2023-02-11T06:49:51.539Z,102383.03
2023-02-11T06:52:17.846Z,102377.72
2023-02-11T06:54:44.246Z,102373.50
2023-02-11T06:57:10.528Z,102381.22
2023-02-11T06:59:36.824Z,102379.91
2023-02-11T07:02:03.232Z,102381.75
2023-02-11T07:04:29.644Z,102370.28
2023-02-11T07:06:55.955Z,102360.47
2023-02-11T07:09:22.221Z,102371.94
2023-02-11T07:11:48.582Z,102376.88
2023-02-11T07:14:15.210Z,102368.03
2023-02-11T07:16:41.568Z,102361.78
2023-02-11T07:19:07.948Z,102358.13
2023-02-11T07:21:34.265Z,102363.91
2023-02-11T07:24:01.044Z,102365.56
2023-02-11T07:26:28.790Z,102365.31
2023-02-11T07:28:55.640Z,102372.69
2023-02-11T07:31:27.913Z,102379.47
2023-02-11T07:33:57.451Z,102384.13
2023-02-11T07:36:24.178Z,102388.50
2023-02-11T07:38:50.530Z,102385.44
2023-02-11T07:41:21.160Z,102384.44
2023-02-11T07:43:47.782Z,102392.97
2023-02-11T07:46:17.295Z,102394.16
2023-02-11T07:48:43.593Z,102380.78
2023-02-11T07:51:16.767Z,102397.81
2023-02-11T07:53:43.890Z,102382.91
2023-02-11T07:56:11.244Z,102389.97
2023-02-11T07:58:38.032Z,102380.94
2023-02-11T08:01:06.351Z,102388.16
2023-02-11T08:03:33.738Z,102398.97
2023-02-11T08:06:11.962Z,102406.28
2023-02-11T08:08:39.036Z,102408.97
2023-02-11T08:11:09.808Z,102407.06
2023-02-11T08:13:36.456Z,102403.47
2023-02-11T08:16:05.801Z,102409.16
2023-02-11T08:18:33.201Z,102400.84
2023-02-11T08:21:10.144Z,102395.59
2023-02-11T08:23:38.358Z,102404.94
2023-02-11T08:26:07.151Z,102410.97
2023-02-11T08:28:36.436Z,102406.88
2023-02-11T08:31:14.320Z,102414.66
2023-02-11T08:33:41.617Z,102411.69
2023-02-11T08:36:14.385Z,102419.44
2023-02-11T08:38:41.567Z,102411.78
2023-02-11T08:41:08.584Z,102408.25
2023-02-11T08:43:36.445Z,102410.19
2023-02-11T08:46:03.841Z,102413.47
2023-02-11T08:48:30.288Z,102409.66
2023-02-11T08:50:57.577Z,102404.91
2023-02-11T08:53:24.360Z,102411.53
2023-02-11T08:55:55.191Z,102415.06
2023-02-11T08:58:22.353Z,102424.06
2023-02-11T09:00:49.948Z,102428.66
2023-02-11T09:03:16.748Z,102432.22
2023-02-11T09:05:49.691Z,102425.81
2023-02-11T09:08:16.865Z,102438.34
2023-02-11T09:10:43.356Z,102424.19
2023-02-11T09:13:09.970Z,102436.25
2023-02-11T09:15:36.374Z,102428.66
2023-02-11T09:18:05.037Z,102429.66
2023-02-11T09:20:31.400Z,102423.50
2023-02-11T09:22:59.037Z,102427.47
2023-02-11T09:25:25.712Z,102426.63
2023-02-11T09:27:53.680Z,102427.75
2023-02-11T09:30:20.036Z,102430.84
2023-02-11T09:32:46.458Z,102435.00
2023-02-11T09:35:12.794Z,102447.19
2023-02-11T09:37:39.233Z,102435.94
2023-02-11T09:40:06.083Z,102438.56
2023-02-11T09:43:04.785Z,102444.63
2023-02-11T09:45:32.082Z,102452.03
2023-02-11T09:48:14.514Z,102446.66
2023-02-11T09:50:46.905Z,102439.53
2023-02-11T09:53:23.339Z,102451.28
2023-02-11T09:55:55.740Z,102449.94
2023-02-11T09:58:28.695Z,102457.97
2023-02-11T10:01:08.540Z,102462.03
2023-02-11T10:03:56.375Z,102455.81
2023-02-11T10:06:42.949Z,102463.66
2023-02-11T10:09:27.473Z,102463.00
2023-02-11T10:12:12.502Z,102461.94
2023-02-11T10:14:57.004Z,102467.81
2023-02-11T10:17:38.613Z,102470.78
2023-02-11T10:20:26.812Z,102461.53
2023-02-11T10:22:57.322Z,102471.22
2023-02-11T10:25:33.730Z,102470.06
2023-02-11T10:28:01.623Z,102477.41
2023-02-11T10:30:40.805Z,102479.91
2023-02-11T10:33:18.642Z,102470.66
2023-02-11T10:35:45.638Z,102470.91
2023-02-11T10:38:12.337Z,102468.75
2023-02-11T10:40:39.840Z,102478.66
2023-02-11T10:43:12.537Z,102482.63
2023-02-11T10:45:53.716Z,102473.53
2023-02-11T10:48:49.484Z,102478.34
2023-02-11T10:51:25.025Z,102475.25
2023-02-11T10:54:19.314Z,102466.72
2023-02-11T10:56:52.754Z,102461.66
2023-02-11T10:59:25.136Z,102457.66
2023-02-11T11:02:01.149Z,102448.47
2023-02-11T11:04:30.589Z,102444.94
2023-02-11T11:07:09.601Z,102440.81
2023-02-11T11:09:46.628Z,102435.56
2023-02-11T11:12:28.266Z,102444.63
2023-02-11T11:14:57.023Z,102436.91
2023-02-11T11:17:23.400Z,102435.25
2023-02-11T11:19:49.722Z,102428.75
2023-02-11T11:22:22.930Z,102432.47
2023-02-11T11:24:55.186Z,102419.03
2023-02-11T11:27:24.484Z,102419.16
2023-02-11T11:29:55.323Z,102428.09
2023-02-11T11:32:32.424Z,102418.69
2023-02-11T11:35:07.708Z,102433.28
2023-02-11T11:37:36.803Z,102433.25
2023-02-11T11:40:21.823Z,102432.31
2023-02-11T11:43:04.127Z,102438.69
2023-02-11T11:45:30.552Z,102437.63
2023-02-11T11:48:04.149Z,102433.41
2023-02-11T11:50:47.421Z,102437.47
2023-02-11T11:53:31.239Z,102443.22
2023-02-11T11:56:05.236Z,102446.16
2023-02-11T11:58:32.453Z,102436.34
2023-02-11T12:01:18.260Z,102429.00
2023-02-11T12:04:11.712Z,102421.81
2023-02-11T12:07:12.487Z,102421.44
2023-02-11T12:10:00.381Z,102425.06
2023-02-11T12:12:46.914Z,102426.28
2023-02-11T12:15:28.362Z,102420.53
2023-02-11T12:18:22.088Z,102421.81
2023-02-11T12:21:15.376Z,102426.13
2023-02-11T12:24:05.177Z,102432.03
2023-02-11T12:26:56.421Z,102425.81
2023-02-11T12:29:40.922Z,102426.19
2023-02-11T12:32:23.550Z,102424.75
2023-02-11T12:35:08.769Z,102423.31
2023-02-11T12:37:46.441Z,102416.69
2023-02-11T12:40:48.362Z,102407.63
2023-02-11T12:43:25.600Z,102412.59
2023-02-11T12:46:07.481Z,102418.81
2023-02-11T12:48:35.786Z,102420.41
2023-02-11T12:51:44.035Z,102417.31
2023-02-11T12:54:10.739Z,102421.50
2023-02-11T12:57:03.470Z,102411.50
2023-02-11T12:59:40.466Z,102409.44
2023-02-11T13:02:24.607Z,102397.16
2023-02-11T13:04:56.701Z,102407.53
2023-02-11T13:07:29.601Z,102405.13
2023-02-11T13:10:39.968Z,102399.16
2023-02-11T13:13:23.200Z,102398.19
2023-02-11T13:16:19.820Z,102393.78
2023-02-11T13:18:57.086Z,102384.44
2023-02-11T13:21:29.420Z,102374.31
2023-02-11T13:24:28.007Z,102381.41
2023-02-11T13:26:58.989Z,102376.63
2023-02-11T13:29:49.022Z,102380.19
2023-02-11T13:32:15.785Z,102384.34
2023-02-11T13:34:42.059Z,102381.84
2023-02-11T13:37:38.939Z,102372.03
2023-02-11T13:40:24.916Z,102376.72
2023-02-11T13:42:57.708Z,102374.16
2023-02-11T13:45:38.867Z,102378.00
2023-02-11T13:48:13.397Z,102388.75
2023-02-11T13:50:47.877Z,102375.22
2023-02-11T13:53:16.162Z,102374.41
2023-02-11T13:55:47.673Z,102368.94
2023-02-11T13:58:13.958Z,102369.78
2023-02-11T14:00:40.377Z,102372.03
2023-02-11T14:03:31.372Z,102376.19
2023-02-11T14:06:28.491Z,102383.28
2023-02-11T14:09:09.824Z,102385.00
2023-02-11T14:11:56.194Z,102389.88
2023-02-11T14:14:31.615Z,102389.25
2023-02-11T14:17:07.228Z,102381.81
2023-02-11T14:19:36.317Z,102376.53
2023-02-11T14:22:05.037Z,102366.44
2023-02-11T14:24:34.791Z,102374.53
2023-02-11T14:27:44.497Z,102365.09
2023-02-11T14:30:32.746Z,102372.56
2023-02-11T14:33:17.807Z,102380.00
2023-02-11T14:36:00.134Z,102373.09
2023-02-11T14:38:57.435Z,102375.72
2023-02-11T14:41:35.481Z,102374.97
2023-02-11T14:44:06.747Z,102381.47
2023-02-11T14:46:33.910Z,102367.53
2023-02-11T14:49:03.502Z,102376.19
2023-02-11T14:51:34.798Z,102382.22
2023-02-11T14:54:17.817Z,102382.47
2023-02-11T14:56:44.648Z,102389.50
2023-02-11T14:59:22.454Z,102398.16
2023-02-11T15:01:50.810Z,102401.78
2023-02-11T15:04:28.753Z,102404.59
2023-02-11T15:06:57.298Z,102400.06
2023-02-11T15:09:33.177Z,102402.53
2023-02-11T15:11:59.690Z,102396.81
2023-02-11T15:14:30.241Z,102405.91
2023-02-11T15:16:59.580Z,102394.34
2023-02-11T15:19:34.111Z,102395.91
2023-02-11T15:22:01.554Z,102392.22
2023-02-11T15:24:34.492Z,102396.59
2023-02-11T15:27:15.370Z,102407.97
2023-02-11T15:29:49.045Z,102404.19
2023-02-11T15:32:18.034Z,102411.09
2023-02-11T15:34:48.729Z,102412.69
2023-02-11T15:37:27.037Z,102410.13
2023-02-11T15:39:54.242Z,102418.59
2023-02-11T15:42:23.900Z,102413.31
2023-02-11T15:45:07.900Z,102417.34
2023-02-11T15:47:34.388Z,102416.41
2023-02-11T15:50:00.879Z,102409.22
2023-02-11T15:52:28.150Z,102414.44
2023-02-11T15:55:00.666Z,102410.72
2023-02-11T15:57:27.583Z,102430.84
2023-02-11T15:59:56.116Z,102435.03
2023-02-11T16:02:34.964Z,102422.75
2023-02-11T16:05:09.034Z,102424.97
2023-02-11T16:07:47.562Z,102428.34
2023-02-11T16:10:31.590Z,102429.75
2023-02-11T16:13:04.061Z,102431.47
2023-02-11T16:15:30.647Z,102436.47
2023-02-11T16:17:57.512Z,102432.28
2023-02-11T16:20:23.851Z,102433.38
2023-02-11T16:22:50.498Z,102436.00
2023-02-11T16:25:19.264Z,102436.19
2023-02-11T16:27:50.033Z,102442.63
2023-02-11T16:30:37.394Z,102443.38
2023-02-11T16:33:05.367Z,102443.22
2023-02-11T16:35:32.392Z,102450.38
2023-02-11T16:37:58.682Z,102447.41
2023-02-11T16:40:25.109Z,102450.25
2023-02-11T16:42:53.278Z,102451.63
2023-02-11T16:45:19.663Z,102460.84
2023-02-11T16:47:46.453Z,102460.63
2023-02-11T16:50:21.733Z,102455.00
2023-02-11T16:52:48.300Z,102459.19
2023-02-11T16:55:15.329Z,102458.28
2023-02-11T16:57:41.757Z,102462.72
2023-02-11T17:00:16.752Z,102463.63
2023-02-11T17:02:43.366Z,102471.47
2023-02-11T17:05:19.858Z,102471.28
2023-02-11T17:07:46.690Z,102472.81
2023-02-11T17:10:16.049Z,102477.91
2023-02-11T17:12:42.350Z,102480.66
2023-02-11T17:15:09.257Z,102474.47
2023-02-11T17:17:35.601Z,102483.91
2023-02-11T17:20:02.066Z,102485.00
2023-02-11T17:22:28.373Z,102485.38
2023-02-11T17:24:56.933Z,102489.81
2023-02-11T17:27:23.440Z,102487.47
2023-02-11T17:29:49.816Z,102489.09
2023-02-11T17:32:16.205Z,102489.75
2023-02-11T17:34:42.479Z,102493.75
2023-02-11T17:37:09.487Z,102488.81
2023-02-11T17:39:40.049Z,102491.63
2023-02-11T17:42:07.192Z,102493.00
2023-02-11T17:44:33.732Z,102499.66
2023-02-11T17:47:00.099Z,102496.38
2023-02-11T17:49:28.579Z,102494.97
2023-02-11T17:51:54.927Z,102494.88
2023-02-11T17:54:21.333Z,102490.78
2023-02-11T17:56:50.590Z,102498.88
2023-02-11T17:59:17.168Z,102504.31
2023-02-11T18:01:43.499Z,102504.78
2023-02-11T18:04:14.402Z,102505.69
2023-02-11T18:06:40.971Z,102497.69
2023-02-11T18:09:07.408Z,102498.41
2023-02-11T18:11:36.286Z,102506.31
2023-02-11T18:14:04.497Z,102507.94
2023-02-11T18:16:31.091Z,102508.31
2023-02-11T18:18:58.664Z,102509.31
2023-02-11T18:21:25.030Z,102512.22
2023-02-11T18:23:51.435Z,102507.22
2023-02-11T18:26:20.780Z,102517.13
2023-02-11T18:28:47.821Z,102517.47
2023-02-11T18:31:14.663Z,102514.22
2023-02-11T18:33:42.039Z,102516.47
2023-02-11T18:36:11.079Z,102523.19
2023-02-11T18:38:37.821Z,102512.66
2023-02-11T18:41:04.546Z,102511.66
2023-02-11T18:43:33.449Z,102501.84
2023-02-11T18:46:00.515Z,102497.56
2023-02-11T18:48:27.514Z,102498.09
2023-02-11T18:50:54.504Z,102499.28
2023-02-11T18:53:21.486Z,102501.56
2023-02-11T18:55:48.351Z,102497.88
2023-02-11T18:58:15.486Z,102507.41
2023-02-11T19:00:44.599Z,102502.56
2023-02-11T19:03:10.915Z,102512.47
2023-02-11T19:05:45.922Z,102511.56
2023-02-11T19:08:13.016Z,102514.63
2023-02-11T19:10:44.044Z,102512.72
2023-02-11T19:13:11.184Z,102513.34
2023-02-11T19:15:44.985Z,102524.16
2023-02-11T19:18:14.708Z,102532.97
2023-02-11T19:20:44.487Z,102534.06
2023-02-11T19:23:11.344Z,102535.41
2023-02-11T19:25:44.193Z,102528.13
2023-02-11T19:28:10.579Z,102528.94
2023-02-11T19:30:36.980Z,102529.56
2023-02-11T19:33:03.388Z,102533.13
2023-02-11T19:35:29.650Z,102534.75
2023-02-11T19:37:55.981Z,102536.13
2023-02-11T19:40:22.705Z,102553.44
2023-02-11T19:42:48.996Z,102551.63
2023-02-11T19:45:15.288Z,102540.91
2023-02-11T19:47:41.566Z,102549.00
2023-02-11T19:50:08.574Z,102561.06
2023-02-11T19:52:37.980Z,102556.91
2023-02-11T19:55:04.768Z,102554.03
2023-02-11T19:57:31.030Z,102558.09
2023-02-11T19:59:57.300Z,102554.13
2023-02-11T20:02:23.642Z,102555.03
2023-02-11T20:04:50.145Z,102554.84
2023-02-11T20:07:16.443Z,102561.13
2023-02-11T20:09:42.811Z,102553.84
2023-02-11T20:12:09.938Z,102560.13
2023-02-11T20:14:36.352Z,102549.97
2023-02-11T20:17:02.729Z,102562.41
2023-02-11T20:19:30.520Z,102561.78
2023-02-11T20:21:56.852Z,102574.66
2023-02-11T20:24:25.571Z,102575.38
2023-02-11T20:26:55.267Z,102566.00
2023-02-11T20:29:22.529Z,102565.91
2023-02-11T20:31:50.222Z,102572.59
2023-02-11T20:34:17.531Z,102574.84
2023-02-11T20:36:51.259Z,102571.00
2023-02-11T20:39:18.556Z,102578.81
2023-02-11T20:41:45.976Z,102573.59
2023-02-11T20:44:13.145Z,102577.44
2023-02-11T20:46:43.112Z,102568.81
2023-02-11T20:49:12.260Z,102566.28
2023-02-11T20:51:38.823Z,102571.97
2023-02-11T20:54:08.554Z,102563.41
2023-02-11T20:56:36.795Z,102571.91
2023-02-11T20:59:05.209Z,102557.13
2023-02-11T21:01:34.486Z,102558.13
2023-02-11T21:04:03.816Z,102557.75
2023-02-11T21:06:36.447Z,102557.94
2023-02-11T21:09:04.397Z,102567.75
2023-02-11T21:11:31.304Z,102568.25
2023-02-11T21:13:58.305Z,102571.78
2023-02-11T21:16:24.843Z,102569.56
2023-02-11T21:18:52.451Z,102558.03
2023-02-11T21:21:19.641Z,102560.25
2023-02-11T21:23:46.345Z,102559.56
2023-02-11T21:26:13.319Z,102561.41
2023-02-11T21:28:41.081Z,102555.06
2023-02-11T21:31:07.776Z,102548.19
2023-02-11T21:33:34.595Z,102549.19
2023-02-11T21:36:03.811Z,102548.63
2023-02-11T21:38:30.643Z,102554.38
2023-02-11T21:41:03.294Z,102558.31
2023-02-11T21:43:29.972Z,102561.75
2023-02-11T21:45:56.615Z,102578.09
2023-02-11T21:48:23.813Z,102581.19
2023-02-11T21:50:50.121Z,102580.94
2023-02-11T21:53:16.384Z,102588.97
2023-02-11T21:55:43.255Z,102594.53
2023-02-11T21:58:11.810Z,102589.41
2023-02-11T22:00:38.424Z,102600.03
2023-02-11T22:03:04.935Z,102591.69
2023-02-11T22:05:31.271Z,102596.00
2023-02-11T22:07:57.650Z,102601.06
2023-02-11T22:10:24.043Z,102600.25
2023-02-11T22:12:50.357Z,102599.25
2023-02-11T22:15:16.657Z,102608.03
2023-02-11T22:17:42.966Z,102602.78
2023-02-11T22:20:10.096Z,102603.00
2023-02-11T22:22:36.385Z,102610.06
2023-02-11T22:25:03.958Z,102603.19
2023-02-11T22:27:30.496Z,102604.22
2023-02-11T22:29:56.748Z,102602.63
2023-02-11T22:32:23.000Z,102597.38
2023-02-11T22:34:51.500Z,102605.25
2023-02-11T22:37:19.548Z,102604.22
2023-02-11T22:39:45.882Z,102605.25
2023-02-11T22:42:12.251Z,102592.84
2023-02-11T22:44:38.627Z,102595.84
2023-02-11T22:47:04.925Z,102598.28
2023-02-11T22:49:33.091Z,102592.53
2023-02-11T22:51:59.714Z,102593.06
2023-02-11T22:54:26.333Z,102595.50
2023-02-11T22:56:53.258Z,102591.41
2023-02-11T22:59:20.321Z,102595.34
2023-02-11T23:01:48.097Z,102596.97
2023-02-11T23:04:15.961Z,102597.78
2023-02-11T23:06:43.081Z,102598.38
2023-02-11T23:09:12.222Z,102600.09
2023-02-11T23:11:39.702Z,102596.56
2023-02-11T23:14:08.389Z,102600.81
2023-02-11T23:16:34.946Z,102609.72
2023-02-11T23:19:04.680Z,102610.72
2023-02-11T23:21:33.356Z,102617.81
2023-02-11T23:24:02.581Z,102617.81
2023-02-11T23:26:29.184Z,102622.25
2023-02-11T23:28:57.801Z,102617.00
2023-02-11T23:31:30.310Z,102614.72
2023-02-11T23:33:57.028Z,102628.53
2023-02-11T23:36:23.753Z,102626.13
2023-02-11T23:38:50.089Z,102624.41
2023-02-11T23:41:17.016Z,102627.72
2023-02-11T23:43:43.608Z,102628.63
2023-02-11T23:46:10.460Z,102627.72
2023-02-11T23:48:37.580Z,102622.41
2023-02-11T23:51:04.197Z,102621.78
2023-02-11T23:53:30.593Z,102616.84
2023-02-11T23:55:57.217Z,102619.47
2023-02-11T23:58:23.668Z,102622.59
